sensor_id;sensor_type;location;lat;lon;timestamp;temperature;humidity
7447;DHT22;3765;47.962;7.952;2023-07-30T00:00:08;21.10;70.70
7447;DHT22;3765;47.962;7.952;2023-07-30T00:02:37;21.20;70.70
7447;DHT22;3765;47.962;7.952;2023-07-30T00:05:07;21.10;70.60
7447;DHT22;3765;47.962;7.952;2023-07-30T00:07:36;21.00;70.60
7447;DHT22;3765;47.962;7.952;2023-07-30T00:10:05;21.00;70.80
7447;DHT22;3765;47.962;7.952;2023-07-30T00:12:35;21.10;70.70
7447;DHT22;3765;47.962;7.952;2023-07-30T00:15:07;20.90;70.70
7447;DHT22;3765;47.962;7.952;2023-07-30T00:17:36;21.00;70.80
7447;DHT22;3765;47.962;7.952;2023-07-30T00:20:07;20.90;70.80
7447;DHT22;3765;47.962;7.952;2023-07-30T00:22:37;20.90;70.90
7447;DHT22;3765;47.962;7.952;2023-07-30T00:25:07;20.90;70.70
7447;DHT22;3765;47.962;7.952;2023-07-30T00:27:37;20.90;70.70
7447;DHT22;3765;47.962;7.952;2023-07-30T00:30:09;20.90;70.60
7447;DHT22;3765;47.962;7.952;2023-07-30T00:33:04;20.80;70.60
7447;DHT22;3765;47.962;7.952;2023-07-30T00:35:51;20.90;70.60
7447;DHT22;3765;47.962;7.952;2023-07-30T00:38:58;21.00;70.30
7447;DHT22;3765;47.962;7.952;2023-07-30T00:41:26;21.00;70.30
7447;DHT22;3765;47.962;7.952;2023-07-30T00:43:54;21.00;70.20
7447;DHT22;3765;47.962;7.952;2023-07-30T00:46:24;21.00;70.10
7447;DHT22;3765;47.962;7.952;2023-07-30T00:48:53;21.00;70.30
7447;DHT22;3765;47.962;7.952;2023-07-30T00:51:23;21.10;70.40
7447;DHT22;3765;47.962;7.952;2023-07-30T00:53:53;21.00;70.20
7447;DHT22;3765;47.962;7.952;2023-07-30T00:56:22;21.10;70.30
7447;DHT22;3765;47.962;7.952;2023-07-30T00:58:53;21.10;70.20
7447;DHT22;3765;47.962;7.952;2023-07-30T01:01:22;21.10;70.40
7447;DHT22;3765;47.962;7.952;2023-07-30T01:03:52;21.00;70.50
7447;DHT22;3765;47.962;7.952;2023-07-30T01:06:22;21.00;70.60
7447;DHT22;3765;47.962;7.952;2023-07-30T01:08:51;21.00;70.70
7447;DHT22;3765;47.962;7.952;2023-07-30T01:11:20;21.00;70.90
7447;DHT22;3765;47.962;7.952;2023-07-30T01:13:48;21.00;70.90
7447;DHT22;3765;47.962;7.952;2023-07-30T01:16:17;20.90;71.00
7447;DHT22;3765;47.962;7.952;2023-07-30T01:18:45;20.80;71.00
7447;DHT22;3765;47.962;7.952;2023-07-30T01:21:15;20.80;71.10
7447;DHT22;3765;47.962;7.952;2023-07-30T01:23:44;20.80;71.10
7447;DHT22;3765;47.962;7.952;2023-07-30T01:26:19;20.80;71.20
7447;DHT22;3765;47.962;7.952;2023-07-30T01:28:52;20.80;71.30
7447;DHT22;3765;47.962;7.952;2023-07-30T01:31:25;20.80;71.30
7447;DHT22;3765;47.962;7.952;2023-07-30T01:33:55;20.80;71.30
7447;DHT22;3765;47.962;7.952;2023-07-30T01:36:32;20.80;71.40
7447;DHT22;3765;47.962;7.952;2023-07-30T01:39:02;20.80;71.50
7447;DHT22;3765;47.962;7.952;2023-07-30T01:41:30;20.80;71.50
7447;DHT22;3765;47.962;7.952;2023-07-30T01:44:01;20.80;71.60
7447;DHT22;3765;47.962;7.952;2023-07-30T01:46:31;20.80;71.70
7447;DHT22;3765;47.962;7.952;2023-07-30T01:48:59;20.80;71.60
7447;DHT22;3765;47.962;7.952;2023-07-30T01:51:31;20.80;71.60
7447;DHT22;3765;47.962;7.952;2023-07-30T01:54:04;20.70;71.70
7447;DHT22;3765;47.962;7.952;2023-07-30T01:56:35;20.70;71.90
7447;DHT22;3765;47.962;7.952;2023-07-30T01:59:07;20.60;71.70
7447;DHT22;3765;47.962;7.952;2023-07-30T02:01:35;20.60;71.80
7447;DHT22;3765;47.962;7.952;2023-07-30T02:04:05;20.60;71.70
7447;DHT22;3765;47.962;7.952;2023-07-30T02:06:37;20.50;71.80
7447;DHT22;3765;47.962;7.952;2023-07-30T02:09:08;20.50;71.90
7447;DHT22;3765;47.962;7.952;2023-07-30T02:11:38;20.50;71.90
7447;DHT22;3765;47.962;7.952;2023-07-30T02:14:09;20.50;71.90
7447;DHT22;3765;47.962;7.952;2023-07-30T02:16:54;20.50;71.80
7447;DHT22;3765;47.962;7.952;2023-07-30T02:19:22;20.50;71.70
7447;DHT22;3765;47.962;7.952;2023-07-30T02:21:55;20.50;71.80
7447;DHT22;3765;47.962;7.952;2023-07-30T02:24:26;20.50;71.70
7447;DHT22;3765;47.962;7.952;2023-07-30T02:27:01;20.50;71.80
7447;DHT22;3765;47.962;7.952;2023-07-30T02:29:32;20.50;71.90
7447;DHT22;3765;47.962;7.952;2023-07-30T02:32:07;20.50;71.90
7447;DHT22;3765;47.962;7.952;2023-07-30T02:34:39;20.40;72.00
7447;DHT22;3765;47.962;7.952;2023-07-30T02:37:12;20.40;72.10
7447;DHT22;3765;47.962;7.952;2023-07-30T02:39:43;20.40;72.00
7447;DHT22;3765;47.962;7.952;2023-07-30T02:42:13;20.40;72.20
7447;DHT22;3765;47.962;7.952;2023-07-30T02:44:42;20.30;72.10
7447;DHT22;3765;47.962;7.952;2023-07-30T02:47:10;20.30;71.90
7447;DHT22;3765;47.962;7.952;2023-07-30T02:49:41;20.40;71.80
7447;DHT22;3765;47.962;7.952;2023-07-30T02:52:14;20.40;71.80
7447;DHT22;3765;47.962;7.952;2023-07-30T02:54:43;20.30;71.90
7447;DHT22;3765;47.962;7.952;2023-07-30T02:57:23;20.40;71.80
7447;DHT22;3765;47.962;7.952;2023-07-30T02:59:58;20.40;71.70
7447;DHT22;3765;47.962;7.952;2023-07-30T03:02:27;20.40;71.90
7447;DHT22;3765;47.962;7.952;2023-07-30T03:05:02;20.30;71.80
7447;DHT22;3765;47.962;7.952;2023-07-30T03:07:36;20.40;72.00
7447;DHT22;3765;47.962;7.952;2023-07-30T03:10:18;20.30;71.90
7447;DHT22;3765;47.962;7.952;2023-07-30T03:12:50;20.40;72.00
7447;DHT22;3765;47.962;7.952;2023-07-30T03:15:21;20.50;71.90
7447;DHT22;3765;47.962;7.952;2023-07-30T03:17:50;20.40;71.90
7447;DHT22;3765;47.962;7.952;2023-07-30T03:20:23;20.30;72.00
7447;DHT22;3765;47.962;7.952;2023-07-30T03:22:53;20.40;71.90
7447;DHT22;3765;47.962;7.952;2023-07-30T03:25:37;20.40;71.90
7447;DHT22;3765;47.962;7.952;2023-07-30T03:28:07;20.40;72.10
7447;DHT22;3765;47.962;7.952;2023-07-30T03:30:41;20.30;72.00
7447;DHT22;3765;47.962;7.952;2023-07-30T03:33:25;20.30;72.10
7447;DHT22;3765;47.962;7.952;2023-07-30T03:35:53;20.30;72.00
7447;DHT22;3765;47.962;7.952;2023-07-30T03:38:32;20.20;71.90
7447;DHT22;3765;47.962;7.952;2023-07-30T03:41:04;20.20;72.00
7447;DHT22;3765;47.962;7.952;2023-07-30T03:43:48;20.10;72.00
7447;DHT22;3765;47.962;7.952;2023-07-30T03:46:23;20.10;71.90
7447;DHT22;3765;47.962;7.952;2023-07-30T03:48:54;20.10;71.90
7447;DHT22;3765;47.962;7.952;2023-07-30T03:51:27;20.10;72.00
7447;DHT22;3765;47.962;7.952;2023-07-30T03:53:58;20.00;72.10
7447;DHT22;3765;47.962;7.952;2023-07-30T03:56:31;20.00;72.00
7447;DHT22;3765;47.962;7.952;2023-07-30T03:59:13;20.10;72.10
7447;DHT22;3765;47.962;7.952;2023-07-30T04:01:55;20.10;72.10
7447;DHT22;3765;47.962;7.952;2023-07-30T04:04:37;20.10;71.90
7447;DHT22;3765;47.962;7.952;2023-07-30T04:07:08;20.10;71.80
7447;DHT22;3765;47.962;7.952;2023-07-30T04:09:58;20.10;71.70
7447;DHT22;3765;47.962;7.952;2023-07-30T04:12:28;20.10;71.60
7447;DHT22;3765;47.962;7.952;2023-07-30T04:14:59;20.10;71.40
7447;DHT22;3765;47.962;7.952;2023-07-30T04:17:30;20.20;71.40
7447;DHT22;3765;47.962;7.952;2023-07-30T04:20:00;20.10;71.50
7447;DHT22;3765;47.962;7.952;2023-07-30T04:22:36;20.00;71.50
7447;DHT22;3765;47.962;7.952;2023-07-30T04:25:07;20.00;71.70
7447;DHT22;3765;47.962;7.952;2023-07-30T04:27:37;20.00;71.60
7447;DHT22;3765;47.962;7.952;2023-07-30T04:30:07;20.10;71.50
7447;DHT22;3765;47.962;7.952;2023-07-30T04:32:38;20.20;71.50
7447;DHT22;3765;47.962;7.952;2023-07-30T04:35:19;20.20;71.50
7447;DHT22;3765;47.962;7.952;2023-07-30T04:37:47;20.20;71.50
7447;DHT22;3765;47.962;7.952;2023-07-30T04:40:23;20.30;71.40
7447;DHT22;3765;47.962;7.952;2023-07-30T04:42:51;20.30;71.20
7447;DHT22;3765;47.962;7.952;2023-07-30T04:45:22;20.30;71.20
7447;DHT22;3765;47.962;7.952;2023-07-30T04:47:58;20.30;71.20
7447;DHT22;3765;47.962;7.952;2023-07-30T04:50:27;20.30;71.10
7447;DHT22;3765;47.962;7.952;2023-07-30T04:53:00;20.30;71.00
7447;DHT22;3765;47.962;7.952;2023-07-30T04:55:32;20.40;71.00
7447;DHT22;3765;47.962;7.952;2023-07-30T04:58:00;20.50;70.80
7447;DHT22;3765;47.962;7.952;2023-07-30T05:00:32;20.50;70.80
7447;DHT22;3765;47.962;7.952;2023-07-30T05:03:16;20.50;70.80
7447;DHT22;3765;47.962;7.952;2023-07-30T05:05:45;20.60;70.60
7447;DHT22;3765;47.962;7.952;2023-07-30T05:08:15;20.60;70.60
7447;DHT22;3765;47.962;7.952;2023-07-30T05:10:47;20.70;70.40
7447;DHT22;3765;47.962;7.952;2023-07-30T05:13:15;20.70;70.40
7447;DHT22;3765;47.962;7.952;2023-07-30T05:15:52;20.70;70.40
7447;DHT22;3765;47.962;7.952;2023-07-30T05:18:36;20.70;70.20
7447;DHT22;3765;47.962;7.952;2023-07-30T05:21:05;20.70;70.10
7447;DHT22;3765;47.962;7.952;2023-07-30T05:23:47;20.80;69.90
7447;DHT22;3765;47.962;7.952;2023-07-30T05:26:23;20.80;69.80
7447;DHT22;3765;47.962;7.952;2023-07-30T05:28:52;20.80;69.60
7447;DHT22;3765;47.962;7.952;2023-07-30T05:31:25;20.80;69.60
7447;DHT22;3765;47.962;7.952;2023-07-30T05:34:08;20.80;69.40
7447;DHT22;3765;47.962;7.952;2023-07-30T05:36:39;20.80;69.30
7447;DHT22;3765;47.962;7.952;2023-07-30T05:39:17;20.80;69.40
7447;DHT22;3765;47.962;7.952;2023-07-30T05:41:52;20.70;69.30
7447;DHT22;3765;47.962;7.952;2023-07-30T05:44:24;20.70;69.40
7447;DHT22;3765;47.962;7.952;2023-07-30T05:46:55;20.70;69.20
7447;DHT22;3765;47.962;7.952;2023-07-30T05:49:26;20.70;69.40
7447;DHT22;3765;47.962;7.952;2023-07-30T05:51:58;20.80;69.00
7447;DHT22;3765;47.962;7.952;2023-07-30T05:54:26;20.80;68.80
7447;DHT22;3765;47.962;7.952;2023-07-30T05:56:58;20.80;68.80
7447;DHT22;3765;47.962;7.952;2023-07-30T05:59:32;20.80;68.80
7447;DHT22;3765;47.962;7.952;2023-07-30T06:02:06;20.80;68.70
7447;DHT22;3765;47.962;7.952;2023-07-30T06:04:34;20.80;68.60
7447;DHT22;3765;47.962;7.952;2023-07-30T06:07:08;20.80;68.70
7447;DHT22;3765;47.962;7.952;2023-07-30T06:09:43;20.80;68.50
7447;DHT22;3765;47.962;7.952;2023-07-30T06:12:25;20.80;68.50
7447;DHT22;3765;47.962;7.952;2023-07-30T06:14:53;20.90;68.40
7447;DHT22;3765;47.962;7.952;2023-07-30T06:17:24;21.10;68.20
7447;DHT22;3765;47.962;7.952;2023-07-30T06:20:02;21.20;68.00
7447;DHT22;3765;47.962;7.952;2023-07-30T06:22:34;21.30;67.60
7447;DHT22;3765;47.962;7.952;2023-07-30T06:25:30;21.40;66.90
7447;DHT22;3765;47.962;7.952;2023-07-30T06:28:07;21.30;67.00
7447;DHT22;3765;47.962;7.952;2023-07-30T06:30:39;21.40;67.10
7447;DHT22;3765;47.962;7.952;2023-07-30T06:33:07;21.30;66.60
7447;DHT22;3765;47.962;7.952;2023-07-30T06:35:40;21.40;66.60
7447;DHT22;3765;47.962;7.952;2023-07-30T06:38:13;21.40;66.40
7447;DHT22;3765;47.962;7.952;2023-07-30T06:40:42;21.50;66.60
7447;DHT22;3765;47.962;7.952;2023-07-30T06:43:17;21.60;66.50
7447;DHT22;3765;47.962;7.952;2023-07-30T06:45:45;21.60;65.70
7447;DHT22;3765;47.962;7.952;2023-07-30T06:48:16;21.70;65.70
7447;DHT22;3765;47.962;7.952;2023-07-30T06:50:47;21.80;65.70
7447;DHT22;3765;47.962;7.952;2023-07-30T06:53:18;21.80;65.70
7447;DHT22;3765;47.962;7.952;2023-07-30T06:56:04;22.00;65.70
7447;DHT22;3765;47.962;7.952;2023-07-30T06:58:34;21.80;65.10
7447;DHT22;3765;47.962;7.952;2023-07-30T07:01:19;21.80;65.30
7447;DHT22;3765;47.962;7.952;2023-07-30T07:03:50;21.90;64.90
7447;DHT22;3765;47.962;7.952;2023-07-30T07:06:40;21.80;64.90
7447;DHT22;3765;47.962;7.952;2023-07-30T07:09:22;21.90;64.60
7447;DHT22;3765;47.962;7.952;2023-07-30T07:11:54;21.80;64.60
7447;DHT22;3765;47.962;7.952;2023-07-30T07:14:26;22.00;64.60
7447;DHT22;3765;47.962;7.952;2023-07-30T07:16:59;22.20;64.20
7447;DHT22;3765;47.962;7.952;2023-07-30T07:19:32;22.40;64.00
7447;DHT22;3765;47.962;7.952;2023-07-30T07:22:06;22.40;63.40
7447;DHT22;3765;47.962;7.952;2023-07-30T07:24:38;22.70;63.20
7447;DHT22;3765;47.962;7.952;2023-07-30T07:27:10;23.00;62.50
7447;DHT22;3765;47.962;7.952;2023-07-30T07:29:46;23.00;62.00
7447;DHT22;3765;47.962;7.952;2023-07-30T07:32:17;23.10;62.10
7447;DHT22;3765;47.962;7.952;2023-07-30T07:34:50;23.30;61.60
7447;DHT22;3765;47.962;7.952;2023-07-30T07:37:21;23.30;61.40
7447;DHT22;3765;47.962;7.952;2023-07-30T07:39:53;23.20;61.20
7447;DHT22;3765;47.962;7.952;2023-07-30T07:42:21;23.30;60.80
7447;DHT22;3765;47.962;7.952;2023-07-30T07:44:57;23.30;61.10
7447;DHT22;3765;47.962;7.952;2023-07-30T07:47:29;23.60;61.10
7447;DHT22;3765;47.962;7.952;2023-07-30T07:50:03;23.60;60.70
7447;DHT22;3765;47.962;7.952;2023-07-30T07:52:34;23.50;60.50
7447;DHT22;3765;47.962;7.952;2023-07-30T07:55:18;23.70;60.30
7447;DHT22;3765;47.962;7.952;2023-07-30T07:58:01;24.00;59.70
7447;DHT22;3765;47.962;7.952;2023-07-30T08:00:45;24.20;59.50
7447;DHT22;3765;47.962;7.952;2023-07-30T08:03:15;24.60;59.20
7447;DHT22;3765;47.962;7.952;2023-07-30T08:05:45;24.70;58.20
7447;DHT22;3765;47.962;7.952;2023-07-30T08:08:15;24.60;58.60
7447;DHT22;3765;47.962;7.952;2023-07-30T08:11:04;24.70;58.00
7447;DHT22;3765;47.962;7.952;2023-07-30T08:13:53;24.60;57.00
7447;DHT22;3765;47.962;7.952;2023-07-30T08:16:24;24.40;56.50
7447;DHT22;3765;47.962;7.952;2023-07-30T08:19:14;24.80;56.40
7447;DHT22;3765;47.962;7.952;2023-07-30T08:21:58;24.30;56.10
7447;DHT22;3765;47.962;7.952;2023-07-30T08:24:27;24.80;56.00
7447;DHT22;3765;47.962;7.952;2023-07-30T08:26:56;24.90;56.10
7447;DHT22;3765;47.962;7.952;2023-07-30T08:29:28;24.90;55.40
7447;DHT22;3765;47.962;7.952;2023-07-30T08:32:07;24.70;55.00
7447;DHT22;3765;47.962;7.952;2023-07-30T08:34:41;24.80;55.00
7447;DHT22;3765;47.962;7.952;2023-07-30T08:37:15;24.80;54.70
7447;DHT22;3765;47.962;7.952;2023-07-30T08:39:47;24.70;54.90
7447;DHT22;3765;47.962;7.952;2023-07-30T08:42:18;24.60;55.10
7447;DHT22;3765;47.962;7.952;2023-07-30T08:44:46;24.80;54.80
7447;DHT22;3765;47.962;7.952;2023-07-30T08:47:16;24.50;54.10
7447;DHT22;3765;47.962;7.952;2023-07-30T08:49:44;24.50;54.20
7447;DHT22;3765;47.962;7.952;2023-07-30T08:52:13;24.40;54.40
7447;DHT22;3765;47.962;7.952;2023-07-30T08:54:48;24.50;53.90
7447;DHT22;3765;47.962;7.952;2023-07-30T08:57:19;24.60;53.80
7447;DHT22;3765;47.962;7.952;2023-07-30T08:59:53;24.70;53.50
7447;DHT22;3765;47.962;7.952;2023-07-30T09:02:26;24.60;53.60
7447;DHT22;3765;47.962;7.952;2023-07-30T09:05:00;24.30;53.80
7447;DHT22;3765;47.962;7.952;2023-07-30T09:07:28;24.40;54.20
7447;DHT22;3765;47.962;7.952;2023-07-30T09:09:57;24.30;54.00
7447;DHT22;3765;47.962;7.952;2023-07-30T09:12:32;24.20;54.00
7447;DHT22;3765;47.962;7.952;2023-07-30T09:15:02;24.20;54.00
7447;DHT22;3765;47.962;7.952;2023-07-30T09:17:33;24.10;54.00
7447;DHT22;3765;47.962;7.952;2023-07-30T09:20:02;24.10;54.20
7447;DHT22;3765;47.962;7.952;2023-07-30T09:22:33;24.00;53.80
7447;DHT22;3765;47.962;7.952;2023-07-30T09:25:04;23.90;54.20
7447;DHT22;3765;47.962;7.952;2023-07-30T09:27:32;24.30;54.30
7447;DHT22;3765;47.962;7.952;2023-07-30T09:30:03;24.20;53.90
7447;DHT22;3765;47.962;7.952;2023-07-30T09:32:35;24.30;54.00
7447;DHT22;3765;47.962;7.952;2023-07-30T09:35:06;24.30;53.10
7447;DHT22;3765;47.962;7.952;2023-07-30T09:37:37;24.20;53.30
7447;DHT22;3765;47.962;7.952;2023-07-30T09:40:07;24.20;53.50
7447;DHT22;3765;47.962;7.952;2023-07-30T09:42:35;24.80;53.30
7447;DHT22;3765;47.962;7.952;2023-07-30T09:45:07;24.80;52.70
7447;DHT22;3765;47.962;7.952;2023-07-30T09:47:38;24.80;51.70
7447;DHT22;3765;47.962;7.952;2023-07-30T09:50:07;24.80;51.40
7447;DHT22;3765;47.962;7.952;2023-07-30T09:52:36;25.00;51.80
7447;DHT22;3765;47.962;7.952;2023-07-30T09:55:06;25.10;51.00
7447;DHT22;3765;47.962;7.952;2023-07-30T09:57:35;25.10;51.20
7447;DHT22;3765;47.962;7.952;2023-07-30T10:00:05;24.90;50.70
7447;DHT22;3765;47.962;7.952;2023-07-30T10:02:39;24.90;51.00
7447;DHT22;3765;47.962;7.952;2023-07-30T10:05:10;24.30;49.10
7447;DHT22;3765;47.962;7.952;2023-07-30T10:07:44;24.10;49.70
7447;DHT22;3765;47.962;7.952;2023-07-30T10:10:18;23.80;49.80
7447;DHT22;3765;47.962;7.952;2023-07-30T10:12:47;24.10;50.20
7447;DHT22;3765;47.962;7.952;2023-07-30T10:15:18;23.90;50.10
7447;DHT22;3765;47.962;7.952;2023-07-30T10:17:49;24.00;50.20
7447;DHT22;3765;47.962;7.952;2023-07-30T10:20:20;24.30;50.30
7447;DHT22;3765;47.962;7.952;2023-07-30T10:22:52;24.50;49.60
7447;DHT22;3765;47.962;7.952;2023-07-30T10:25:21;24.50;49.70
7447;DHT22;3765;47.962;7.952;2023-07-30T10:27:51;24.40;49.60
7447;DHT22;3765;47.962;7.952;2023-07-30T10:30:20;24.40;49.50
7447;DHT22;3765;47.962;7.952;2023-07-30T10:33:01;24.60;48.90
7447;DHT22;3765;47.962;7.952;2023-07-30T10:35:40;24.60;49.30
7447;DHT22;3765;47.962;7.952;2023-07-30T10:38:16;24.40;48.90
7447;DHT22;3765;47.962;7.952;2023-07-30T10:41:01;24.60;49.00
7447;DHT22;3765;47.962;7.952;2023-07-30T10:43:30;24.80;48.90
7447;DHT22;3765;47.962;7.952;2023-07-30T10:45:58;24.80;49.30
7447;DHT22;3765;47.962;7.952;2023-07-30T10:48:33;25.00;49.40
7447;DHT22;3765;47.962;7.952;2023-07-30T10:51:03;25.20;49.00
7447;DHT22;3765;47.962;7.952;2023-07-30T10:53:31;25.40;49.20
7447;DHT22;3765;47.962;7.952;2023-07-30T10:56:00;25.70;49.00
7447;DHT22;3765;47.962;7.952;2023-07-30T10:58:30;26.10;48.40
7447;DHT22;3765;47.962;7.952;2023-07-30T11:01:01;25.60;48.00
7447;DHT22;3765;47.962;7.952;2023-07-30T11:03:30;25.80;47.50
7447;DHT22;3765;47.962;7.952;2023-07-30T11:06:00;25.90;46.20
7447;DHT22;3765;47.962;7.952;2023-07-30T11:08:34;26.30;45.70
7447;DHT22;3765;47.962;7.952;2023-07-30T11:11:03;25.80;45.60
7447;DHT22;3765;47.962;7.952;2023-07-30T11:13:35;25.70;46.10
7447;DHT22;3765;47.962;7.952;2023-07-30T11:16:04;25.60;46.50
7447;DHT22;3765;47.962;7.952;2023-07-30T11:18:33;25.30;46.60
7447;DHT22;3765;47.962;7.952;2023-07-30T11:21:04;25.00;47.00
7447;DHT22;3765;47.962;7.952;2023-07-30T11:23:33;24.80;46.90
7447;DHT22;3765;47.962;7.952;2023-07-30T11:26:03;24.80;47.60
7447;DHT22;3765;47.962;7.952;2023-07-30T11:28:32;24.80;47.90
7447;DHT22;3765;47.962;7.952;2023-07-30T11:31:05;24.90;47.70
7447;DHT22;3765;47.962;7.952;2023-07-30T11:33:36;25.30;47.80
7447;DHT22;3765;47.962;7.952;2023-07-30T11:36:07;25.70;47.20
7447;DHT22;3765;47.962;7.952;2023-07-30T11:38:36;25.60;46.80
7447;DHT22;3765;47.962;7.952;2023-07-30T11:41:06;25.50;46.90
7447;DHT22;3765;47.962;7.952;2023-07-30T11:43:38;25.90;46.40
7447;DHT22;3765;47.962;7.952;2023-07-30T11:46:08;25.70;45.90
7447;DHT22;3765;47.962;7.952;2023-07-30T11:48:37;25.80;46.00
7447;DHT22;3765;47.962;7.952;2023-07-30T11:51:16;25.90;45.70
7447;DHT22;3765;47.962;7.952;2023-07-30T11:53:47;26.30;45.90
7447;DHT22;3765;47.962;7.952;2023-07-30T11:56:17;26.80;45.00
7447;DHT22;3765;47.962;7.952;2023-07-30T11:58:46;26.60;44.80
7447;DHT22;3765;47.962;7.952;2023-07-30T12:01:15;26.40;45.30
7447;DHT22;3765;47.962;7.952;2023-07-30T12:03:43;26.20;45.10
7447;DHT22;3765;47.962;7.952;2023-07-30T12:06:13;26.30;45.30
7447;DHT22;3765;47.962;7.952;2023-07-30T12:08:42;25.70;45.50
7447;DHT22;3765;47.962;7.952;2023-07-30T12:11:10;25.50;46.00
7447;DHT22;3765;47.962;7.952;2023-07-30T12:13:43;25.00;46.40
7447;DHT22;3765;47.962;7.952;2023-07-30T12:16:13;24.90;46.90
7447;DHT22;3765;47.962;7.952;2023-07-30T12:18:44;24.90;47.40
7447;DHT22;3765;47.962;7.952;2023-07-30T12:21:13;25.50;47.00
7447;DHT22;3765;47.962;7.952;2023-07-30T12:23:41;25.60;46.30
7447;DHT22;3765;47.962;7.952;2023-07-30T12:26:10;25.30;47.00
7447;DHT22;3765;47.962;7.952;2023-07-30T12:28:38;25.60;46.40
7447;DHT22;3765;47.962;7.952;2023-07-30T12:31:06;25.90;46.20
7447;DHT22;3765;47.962;7.952;2023-07-30T12:33:34;26.30;46.10
7447;DHT22;3765;47.962;7.952;2023-07-30T12:36:03;26.40;45.50
7447;DHT22;3765;47.962;7.952;2023-07-30T12:38:32;26.50;45.80
7447;DHT22;3765;47.962;7.952;2023-07-30T12:41:01;26.90;45.50
7447;DHT22;3765;47.962;7.952;2023-07-30T12:43:29;26.80;44.80
7447;DHT22;3765;47.962;7.952;2023-07-30T12:45:57;26.70;45.00
7447;DHT22;3765;47.962;7.952;2023-07-30T12:48:25;27.10;44.70
7447;DHT22;3765;47.962;7.952;2023-07-30T12:50:53;27.10;44.10
7447;DHT22;3765;47.962;7.952;2023-07-30T12:53:24;26.70;45.00
7447;DHT22;3765;47.962;7.952;2023-07-30T12:55:53;27.10;45.00
7447;DHT22;3765;47.962;7.952;2023-07-30T12:58:22;27.50;44.20
7447;DHT22;3765;47.962;7.952;2023-07-30T13:00:50;27.30;43.80
7447;DHT22;3765;47.962;7.952;2023-07-30T13:03:18;26.40;43.90
7447;DHT22;3765;47.962;7.952;2023-07-30T13:05:46;26.00;44.10
7447;DHT22;3765;47.962;7.952;2023-07-30T13:08:15;26.20;44.30
7447;DHT22;3765;47.962;7.952;2023-07-30T13:10:43;26.10;44.30
7447;DHT22;3765;47.962;7.952;2023-07-30T13:13:12;25.90;44.40
7447;DHT22;3765;47.962;7.952;2023-07-30T13:15:40;25.80;44.70
7447;DHT22;3765;47.962;7.952;2023-07-30T13:18:09;25.80;44.70
7447;DHT22;3765;47.962;7.952;2023-07-30T13:20:37;25.60;45.00
7447;DHT22;3765;47.962;7.952;2023-07-30T13:23:06;26.30;44.50
7447;DHT22;3765;47.962;7.952;2023-07-30T13:25:34;26.80;44.10
7447;DHT22;3765;47.962;7.952;2023-07-30T13:28:02;27.30;43.30
7447;DHT22;3765;47.962;7.952;2023-07-30T13:30:32;27.80;42.80
7447;DHT22;3765;47.962;7.952;2023-07-30T13:33:00;27.60;42.00
7447;DHT22;3765;47.962;7.952;2023-07-30T13:35:28;27.70;42.10
7447;DHT22;3765;47.962;7.952;2023-07-30T13:37:57;27.30;42.30
7447;DHT22;3765;47.962;7.952;2023-07-30T13:40:25;26.70;42.80
7447;DHT22;3765;47.962;7.952;2023-07-30T13:42:53;26.30;43.70
7447;DHT22;3765;47.962;7.952;2023-07-30T13:45:22;26.60;44.30
7447;DHT22;3765;47.962;7.952;2023-07-30T13:47:51;27.30;44.80
7447;DHT22;3765;47.962;7.952;2023-07-30T13:50:20;27.80;43.70
7447;DHT22;3765;47.962;7.952;2023-07-30T13:52:48;28.20;44.00
7447;DHT22;3765;47.962;7.952;2023-07-30T13:55:16;28.30;43.20
7447;DHT22;3765;47.962;7.952;2023-07-30T13:57:44;26.90;43.40
7447;DHT22;3765;47.962;7.952;2023-07-30T14:00:13;26.10;44.60
7447;DHT22;3765;47.962;7.952;2023-07-30T14:02:41;25.40;45.50
7447;DHT22;3765;47.962;7.952;2023-07-30T14:05:12;25.00;46.60
7447;DHT22;3765;47.962;7.952;2023-07-30T14:07:40;24.50;46.90
7447;DHT22;3765;47.962;7.952;2023-07-30T14:10:09;24.70;47.30
7447;DHT22;3765;47.962;7.952;2023-07-30T14:12:37;24.80;47.60
7447;DHT22;3765;47.962;7.952;2023-07-30T14:15:06;25.00;47.20
7447;DHT22;3765;47.962;7.952;2023-07-30T14:17:34;25.10;47.50
7447;DHT22;3765;47.962;7.952;2023-07-30T14:20:03;24.70;47.50
7447;DHT22;3765;47.962;7.952;2023-07-30T14:22:33;25.40;47.70
7447;DHT22;3765;47.962;7.952;2023-07-30T14:25:01;26.00;46.50
7447;DHT22;3765;47.962;7.952;2023-07-30T14:27:30;25.70;46.60
7447;DHT22;3765;47.962;7.952;2023-07-30T14:29:58;26.40;46.80
7447;DHT22;3765;47.962;7.952;2023-07-30T14:32:26;27.80;45.10
7447;DHT22;3765;47.962;7.952;2023-07-30T14:34:54;28.70;44.00
7447;DHT22;3765;47.962;7.952;2023-07-30T14:37:23;28.00;43.00
7447;DHT22;3765;47.962;7.952;2023-07-30T14:39:52;27.80;43.90
7447;DHT22;3765;47.962;7.952;2023-07-30T14:42:21;28.00;43.10
7447;DHT22;3765;47.962;7.952;2023-07-30T14:44:49;27.50;42.20
7447;DHT22;3765;47.962;7.952;2023-07-30T14:47:17;26.90;42.70
7447;DHT22;3765;47.962;7.952;2023-07-30T14:49:45;26.60;43.30
7447;DHT22;3765;47.962;7.952;2023-07-30T14:52:14;26.40;43.20
7447;DHT22;3765;47.962;7.952;2023-07-30T14:54:42;26.30;43.40
7447;DHT22;3765;47.962;7.952;2023-07-30T14:57:11;26.80;42.40
7447;DHT22;3765;47.962;7.952;2023-07-30T14:59:40;26.90;42.30
7447;DHT22;3765;47.962;7.952;2023-07-30T15:02:08;26.50;42.30
7447;DHT22;3765;47.962;7.952;2023-07-30T15:04:36;26.10;43.40
7447;DHT22;3765;47.962;7.952;2023-07-30T15:07:04;26.10;43.90
7447;DHT22;3765;47.962;7.952;2023-07-30T15:09:32;25.60;43.90
7447;DHT22;3765;47.962;7.952;2023-07-30T15:12:04;25.60;44.30
7447;DHT22;3765;47.962;7.952;2023-07-30T15:14:35;25.50;44.50
7447;DHT22;3765;47.962;7.952;2023-07-30T15:17:04;26.70;44.00
7447;DHT22;3765;47.962;7.952;2023-07-30T15:19:33;26.80;43.30
7447;DHT22;3765;47.962;7.952;2023-07-30T15:22:01;26.60;43.50
7447;DHT22;3765;47.962;7.952;2023-07-30T15:24:29;26.60;43.90
7447;DHT22;3765;47.962;7.952;2023-07-30T15:26:58;26.80;43.00
7447;DHT22;3765;47.962;7.952;2023-07-30T15:29:26;26.50;42.00
7447;DHT22;3765;47.962;7.952;2023-07-30T15:31:56;26.50;42.20
7447;DHT22;3765;47.962;7.952;2023-07-30T15:34:24;28.10;40.80
7447;DHT22;3765;47.962;7.952;2023-07-30T15:36:53;28.40;39.20
7447;DHT22;3765;47.962;7.952;2023-07-30T15:39:21;27.10;40.00
7447;DHT22;3765;47.962;7.952;2023-07-30T15:41:49;26.50;40.50
7447;DHT22;3765;47.962;7.952;2023-07-30T15:44:17;26.50;40.60
7447;DHT22;3765;47.962;7.952;2023-07-30T15:46:46;26.20;41.20
7447;DHT22;3765;47.962;7.952;2023-07-30T15:49:16;26.30;41.20
7447;DHT22;3765;47.962;7.952;2023-07-30T15:51:44;26.10;41.50
7447;DHT22;3765;47.962;7.952;2023-07-30T15:54:14;25.70;42.00
7447;DHT22;3765;47.962;7.952;2023-07-30T15:56:42;25.30;42.60
7447;DHT22;3765;47.962;7.952;2023-07-30T15:59:10;25.30;42.40
7447;DHT22;3765;47.962;7.952;2023-07-30T16:01:38;25.40;42.40
7447;DHT22;3765;47.962;7.952;2023-07-30T16:04:06;25.80;42.50
7447;DHT22;3765;47.962;7.952;2023-07-30T16:06:36;26.50;42.10
7447;DHT22;3765;47.962;7.952;2023-07-30T16:09:04;27.20;41.00
7447;DHT22;3765;47.962;7.952;2023-07-30T16:11:33;27.10;40.40
7447;DHT22;3765;47.962;7.952;2023-07-30T16:14:05;26.60;40.50
7447;DHT22;3765;47.962;7.952;2023-07-30T16:16:33;26.00;40.80
7447;DHT22;3765;47.962;7.952;2023-07-30T16:19:03;25.60;41.20
7447;DHT22;3765;47.962;7.952;2023-07-30T16:21:33;26.60;41.00
7447;DHT22;3765;47.962;7.952;2023-07-30T16:24:03;28.00;40.00
7447;DHT22;3765;47.962;7.952;2023-07-30T16:26:33;29.70;39.50
7447;DHT22;3765;47.962;7.952;2023-07-30T16:29:02;31.40;37.10